Time;durP1;ratioP1;P1;durP2;ratioP2;P2;SDS_P1;SDS_P2;PMS_P1;PMS_P2;Temp;Humidity;BMP_temperature;BMP_pressure;BME280_temperature;BME280_humidity;BME280_pressure;Samples;Min_cycle;Max_cycle;Signal;HPM_P1;HPM_P2
2021/03/05 00:00:18;;;;;;;10.95;7.9;;;;;;;5.67;66.52344;95063.22;;;;
2021/03/05 00:01:21;;;;;;;10.95;7.9;;;;;;;5.67;66.52344;95063.22;;;;
2021/03/05 00:02:21;;;;;;;10.95;7.9;;;;;;;5.67;66.52344;95063.22;;;;
2021/03/05 00:03:22;;;;;;;10.95;7.9;;;;;;;5.67;66.52344;95063.22;;;;
2021/03/05 00:04:23;;;;;;;10.4;7.299999;;;;;;;5.63;67.42969;95062.02;;;;
2021/03/05 00:05:23;;;;;;;10.4;7.299999;;;;;;;5.63;67.42969;95062.02;;;;
2021/03/05 00:06:24;;;;;;;10.4;7.299999;;;;;;;5.63;67.42969;95062.02;;;;
2021/03/05 00:07:25;;;;;;;10.4;7.299999;;;;;;;5.63;67.42969;95062.02;;;;
2021/03/05 00:08:25;;;;;;;10.4;7.299999;;;;;;;5.63;67.42969;95062.02;;;;
2021/03/05 00:09:26;;;;;;;10.4;7.299999;;;;;;;5.63;67.42969;95062.02;;;;
2021/03/05 00:10:27;;;;;;;10.4;7.299999;;;;;;;5.63;67.42969;95062.02;;;;
2021/03/05 00:11:29;;;;;;;10.4;7.299999;;;;;;;5.63;67.42969;95062.02;;;;
2021/03/05 00:12:30;;;;;;;10.4;7.299999;;;;;;;5.63;67.42969;95062.02;;;;
2021/03/05 00:13:30;;;;;;;10.4;7.299999;;;;;;;5.63;67.42969;95062.02;;;;
2021/03/05 00:14:31;;;;;;;10.75;7.7;;;;;;;5.68;68.19238;95067.44;;;;
2021/03/05 00:15:31;;;;;;;10.75;7.7;;;;;;;5.68;68.19238;95067.44;;;;
2021/03/05 00:16:34;;;;;;;10.75;7.7;;;;;;;5.68;68.19238;95067.44;;;;
2021/03/05 00:17:35;;;;;;;10.75;7.7;;;;;;;5.68;68.19238;95067.44;;;;
2021/03/05 00:18:36;;;;;;;10.75;7.7;;;;;;;5.68;68.19238;95067.44;;;;
2021/03/05 00:19:36;;;;;;;10.75;7.7;;;;;;;5.68;68.19238;95067.44;;;;
2021/03/05 00:20:37;;;;;;;10.75;7.7;;;;;;;5.68;68.19238;95067.44;;;;
2021/03/05 00:21:42;;;;;;;10.75;7.7;;;;;;;5.68;68.19238;95067.44;;;;
2021/03/05 00:22:42;;;;;;;10.75;7.7;;;;;;;5.68;68.19238;95067.44;;;;
2021/03/05 00:23:43;;;;;;;10.75;7.7;;;;;;;5.68;68.19238;95067.44;;;;
2021/03/05 00:24:44;;;;;;;10.75;7.7;;;;;;;5.68;68.19238;95067.44;;;;
2021/03/05 00:25:44;;;;;;;8.299999;6.400001;;;;;;;5.72;69.34277;95058.87;;;;
2021/03/05 00:26:45;;;;;;;8.299999;6.400001;;;;;;;5.72;69.34277;95058.87;;;;
2021/03/05 00:27:45;;;;;;;8.299999;6.400001;;;;;;;5.72;69.34277;95058.87;;;;
2021/03/05 00:28:46;;;;;;;8.299999;6.400001;;;;;;;5.72;69.34277;95058.87;;;;
2021/03/05 00:29:47;;;;;;;8.299999;6.400001;;;;;;;5.72;69.34277;95058.87;;;;
2021/03/05 00:30:47;;;;;;;8.299999;6.400001;;;;;;;5.72;69.34277;95058.87;;;;
2021/03/05 00:31:48;;;;;;;8.299999;6.400001;;;;;;;5.72;69.34277;95058.87;;;;
2021/03/05 00:32:48;;;;;;;8.299999;6.400001;;;;;;;5.72;69.34277;95058.87;;;;
2021/03/05 00:33:49;;;;;;;8.299999;6.400001;;;;;;;5.72;69.34277;95058.87;;;;
2021/03/05 00:34:49;;;;;;;8.299999;6.400001;;;;;;;5.72;69.34277;95058.87;;;;
2021/03/05 00:35:50;;;;;;;8.3;6.150001;;;;;;;5.73;69.91602;95064.97;;;;
2021/03/05 00:36:51;;;;;;;8.3;6.150001;;;;;;;5.73;69.91602;95064.97;;;;
2021/03/05 00:37:51;;;;;;;8.3;6.150001;;;;;;;5.73;69.91602;95064.97;;;;
2021/03/05 00:38:52;;;;;;;8.3;6.150001;;;;;;;5.73;69.91602;95064.97;;;;
2021/03/05 00:39:52;;;;;;;8.3;6.150001;;;;;;;5.73;69.91602;95064.97;;;;
2021/03/05 00:40:53;;;;;;;8.3;6.150001;;;;;;;5.73;69.91602;95064.97;;;;
2021/03/05 00:41:53;;;;;;;8.3;6.150001;;;;;;;5.73;69.91602;95064.97;;;;
2021/03/05 00:42:54;;;;;;;8.3;6.150001;;;;;;;5.73;69.91602;95064.97;;;;
2021/03/05 00:43:55;;;;;;;8.3;6.150001;;;;;;;5.73;69.91602;95064.97;;;;
2021/03/05 00:44:55;;;;;;;8.3;6.150001;;;;;;;5.73;69.91602;95064.97;;;;
2021/03/05 00:45:56;;;;;;;8.3;6.150001;;;;;;;5.73;69.91602;95064.97;;;;
2021/03/05 00:46:56;;;;;;;7.65;5.450001;;;;;;;5.71;70.82324;95067.95;;;;
2021/03/05 00:47:57;;;;;;;7.65;5.450001;;;;;;;5.71;70.82324;95067.95;;;;
2021/03/05 00:48:57;;;;;;;7.65;5.450001;;;;;;;5.71;70.82324;95067.95;;;;
2021/03/05 00:49:58;;;;;;;7.65;5.450001;;;;;;;5.71;70.82324;95067.95;;;;
2021/03/05 00:50:59;;;;;;;7.65;5.450001;;;;;;;5.71;70.82324;95067.95;;;;
2021/03/05 00:51:59;;;;;;;7.65;5.450001;;;;;;;5.71;70.82324;95067.95;;;;
2021/03/05 00:53:00;;;;;;;7.65;5.450001;;;;;;;5.71;70.82324;95067.95;;;;
2021/03/05 00:54:00;;;;;;;7.65;5.450001;;;;;;;5.71;70.82324;95067.95;;;;
2021/03/05 00:55:01;;;;;;;7.65;5.450001;;;;;;;5.71;70.82324;95067.95;;;;
2021/03/05 00:56:02;;;;;;;7.65;5.450001;;;;;;;5.71;70.82324;95067.95;;;;
2021/03/05 00:57:03;;;;;;;7.949999;4.85;;;;;;;5.71;72.13574;95070.22;;;;
2021/03/05 00:58:04;;;;;;;7.949999;4.85;;;;;;;5.71;72.13574;95070.22;;;;
2021/03/05 00:59:04;;;;;;;7.949999;4.85;;;;;;;5.71;72.13574;95070.22;;;;
2021/03/05 01:00:05;;;;;;;7.949999;4.85;;;;;;;5.71;72.13574;95070.22;;;;
2021/03/05 01:01:09;;;;;;;7.949999;4.85;;;;;;;5.71;72.13574;95070.22;;;;
2021/03/05 01:02:09;;;;;;;7.949999;4.85;;;;;;;5.71;72.13574;95070.22;;;;
2021/03/05 01:03:10;;;;;;;7.949999;4.85;;;;;;;5.71;72.13574;95070.22;;;;
2021/03/05 01:04:10;;;;;;;7.949999;4.85;;;;;;;5.71;72.13574;95070.22;;;;
2021/03/05 01:05:11;;;;;;;7.949999;4.85;;;;;;;5.71;72.13574;95070.22;;;;
2021/03/05 01:06:12;;;;;;;7.949999;4.85;;;;;;;5.71;72.13574;95070.22;;;;
2021/03/05 01:07:12;;;;;;;7.949999;4.85;;;;;;;5.71;72.13574;95070.22;;;;
2021/03/05 01:08:13;;;;;;;6.7;4.95;;;;;;;5.73;72.47949;95071.77;;;;
2021/03/05 01:09:13;;;;;;;6.7;4.95;;;;;;;5.73;72.47949;95071.77;;;;
2021/03/05 01:10:14;;;;;;;6.7;4.95;;;;;;;5.73;72.47949;95071.77;;;;
2021/03/05 01:11:15;;;;;;;6.7;4.95;;;;;;;5.73;72.47949;95071.77;;;;
2021/03/05 01:12:15;;;;;;;6.7;4.95;;;;;;;5.73;72.47949;95071.77;;;;
2021/03/05 01:13:16;;;;;;;6.7;4.95;;;;;;;5.73;72.47949;95071.77;;;;
2021/03/05 01:14:17;;;;;;;6.7;4.95;;;;;;;5.73;72.47949;95071.77;;;;
2021/03/05 01:15:17;;;;;;;6.7;4.95;;;;;;;5.73;72.47949;95071.77;;;;
2021/03/05 01:16:18;;;;;;;6.7;4.95;;;;;;;5.73;72.47949;95071.77;;;;
2021/03/05 01:17:19;;;;;;;6.7;4.95;;;;;;;5.73;72.47949;95071.77;;;;
2021/03/05 01:18:19;;;;;;;6.599999;4.900001;;;;;;;5.76;72.98145;95087.31;;;;
2021/03/05 01:19:20;;;;;;;6.599999;4.900001;;;;;;;5.76;72.98145;95087.31;;;;
2021/03/05 01:20:21;;;;;;;6.599999;4.900001;;;;;;;5.76;72.98145;95087.31;;;;
2021/03/05 01:21:24;;;;;;;6.599999;4.900001;;;;;;;5.76;72.98145;95087.31;;;;
2021/03/05 01:22:25;;;;;;;6.599999;4.900001;;;;;;;5.76;72.98145;95087.31;;;;
2021/03/05 01:23:25;;;;;;;6.599999;4.900001;;;;;;;5.76;72.98145;95087.31;;;;
2021/03/05 01:24:26;;;;;;;6.599999;4.900001;;;;;;;5.76;72.98145;95087.31;;;;
2021/03/05 01:25:26;;;;;;;6.599999;4.900001;;;;;;;5.76;72.98145;95087.31;;;;
2021/03/05 01:26:30;;;;;;;6.599999;4.900001;;;;;;;5.76;72.98145;95087.31;;;;
2021/03/05 01:27:31;;;;;;;6.599999;4.900001;;;;;;;5.76;72.98145;95087.31;;;;
2021/03/05 01:28:31;;;;;;;6.599999;4.900001;;;;;;;5.76;72.98145;95087.31;;;;
2021/03/05 01:29:32;;;;;;;8.199999;5.799999;;;;;;;5.85;74.36133;95075.45;;;;
2021/03/05 01:30:32;;;;;;;8.199999;5.799999;;;;;;;5.85;74.36133;95075.45;;;;
2021/03/05 01:31:33;;;;;;;8.199999;5.799999;;;;;;;5.85;74.36133;95075.45;;;;
2021/03/05 01:32:34;;;;;;;8.199999;5.799999;;;;;;;5.85;74.36133;95075.45;;;;
2021/03/05 01:33:35;;;;;;;8.199999;5.799999;;;;;;;5.85;74.36133;95075.45;;;;
2021/03/05 01:34:35;;;;;;;8.199999;5.799999;;;;;;;5.85;74.36133;95075.45;;;;
2021/03/05 01:35:36;;;;;;;8.199999;5.799999;;;;;;;5.85;74.36133;95075.45;;;;
2021/03/05 01:36:36;;;;;;;8.199999;5.799999;;;;;;;5.85;74.36133;95075.45;;;;
2021/03/05 01:37:37;;;;;;;8.199999;5.799999;;;;;;;5.85;74.36133;95075.45;;;;
2021/03/05 01:38:38;;;;;;;8.199999;5.799999;;;;;;;5.85;74.36133;95075.45;;;;
2021/03/05 01:39:39;;;;;;;7.55;5.15;;;;;;;5.81;75.0127;95072.76;;;;
2021/03/05 01:40:39;;;;;;;7.55;5.15;;;;;;;5.81;75.0127;95072.76;;;;
2021/03/05 01:41:43;;;;;;;7.55;5.15;;;;;;;5.81;75.0127;95072.76;;;;
2021/03/05 01:42:44;;;;;;;7.55;5.15;;;;;;;5.81;75.0127;95072.76;;;;
2021/03/05 01:43:45;;;;;;;7.55;5.15;;;;;;;5.81;75.0127;95072.76;;;;
2021/03/05 01:44:45;;;;;;;7.55;5.15;;;;;;;5.81;75.0127;95072.76;;;;
2021/03/05 01:45:46;;;;;;;7.55;5.15;;;;;;;5.81;75.0127;95072.76;;;;
2021/03/05 01:46:47;;;;;;;7.55;5.15;;;;;;;5.81;75.0127;95072.76;;;;
2021/03/05 01:47:48;;;;;;;7.55;5.15;;;;;;;5.81;75.0127;95072.76;;;;
2021/03/05 01:48:50;;;;;;;7.55;5.15;;;;;;;5.81;75.0127;95072.76;;;;
2021/03/05 01:49:50;;;;;;;7.55;5.15;;;;;;;5.81;75.0127;95072.76;;;;
2021/03/05 01:50:51;;;;;;;6.4;5.150001;;;;;;;5.8;75.80273;95074.73;;;;
2021/03/05 01:51:59;;;;;;;6.4;5.150001;;;;;;;5.8;75.80273;95074.73;;;;
2021/03/05 01:53:00;;;;;;;6.4;5.150001;;;;;;;5.8;75.80273;95074.73;;;;
2021/03/05 01:54:03;;;;;;;6.4;5.150001;;;;;;;5.8;75.80273;95074.73;;;;
2021/03/05 01:55:04;;;;;;;6.4;5.150001;;;;;;;5.8;75.80273;95074.73;;;;
2021/03/05 01:56:05;;;;;;;6.4;5.150001;;;;;;;5.8;75.80273;95074.73;;;;
2021/03/05 01:57:07;;;;;;;6.4;5.150001;;;;;;;5.8;75.80273;95074.73;;;;
2021/03/05 01:58:08;;;;;;;6.4;5.150001;;;;;;;5.8;75.80273;95074.73;;;;
2021/03/05 01:59:08;;;;;;;6.4;5.150001;;;;;;;5.8;75.80273;95074.73;;;;
2021/03/05 02:00:11;;;;;;;6.4;5.150001;;;;;;;5.8;75.80273;95074.73;;;;
2021/03/05 02:01:16;;;;;;;7.65;5.200001;;;;;;;5.78;76.68652;95076.37;;;;
2021/03/05 02:02:17;;;;;;;7.65;5.200001;;;;;;;5.78;76.68652;95076.37;;;;
2021/03/05 02:03:18;;;;;;;7.65;5.200001;;;;;;;5.78;76.68652;95076.37;;;;
2021/03/05 02:04:18;;;;;;;7.65;5.200001;;;;;;;5.78;76.68652;95076.37;;;;
2021/03/05 02:05:19;;;;;;;7.65;5.200001;;;;;;;5.78;76.68652;95076.37;;;;
2021/03/05 02:06:20;;;;;;;7.65;5.200001;;;;;;;5.78;76.68652;95076.37;;;;
2021/03/05 02:07:21;;;;;;;7.65;5.200001;;;;;;;5.78;76.68652;95076.37;;;;
2021/03/05 02:08:21;;;;;;;7.65;5.200001;;;;;;;5.78;76.68652;95076.37;;;;
2021/03/05 02:09:23;;;;;;;7.65;5.200001;;;;;;;5.78;76.68652;95076.37;;;;
2021/03/05 02:10:23;;;;;;;7.65;5.200001;;;;;;;5.78;76.68652;95076.37;;;;
2021/03/05 02:11:24;;;;;;;7.65;5.200001;;;;;;;5.78;76.68652;95076.37;;;;
2021/03/05 02:12:25;;;;;;;5.3;4.7;;;;;;;5.75;77.20117;95077.23;;;;
2021/03/05 02:13:25;;;;;;;5.3;4.7;;;;;;;5.75;77.20117;95077.23;;;;
2021/03/05 02:14:26;;;;;;;5.3;4.7;;;;;;;5.75;77.20117;95077.23;;;;
2021/03/05 02:15:27;;;;;;;5.3;4.7;;;;;;;5.75;77.20117;95077.23;;;;
2021/03/05 02:16:28;;;;;;;5.3;4.7;;;;;;;5.75;77.20117;95077.23;;;;
2021/03/05 02:17:38;;;;;;;5.3;4.7;;;;;;;5.75;77.20117;95077.23;;;;
2021/03/05 02:18:48;;;;;;;5.3;4.7;;;;;;;5.75;77.20117;95077.23;;;;
2021/03/05 02:20:01;;;;;;;5.3;4.7;;;;;;;5.75;77.20117;95077.23;;;;
2021/03/05 02:21:14;;;;;;;5.3;4.7;;;;;;;5.75;77.20117;95077.23;;;;
2021/03/05 02:22:33;;;;;;;7.25;4.95;;;;;;;5.79;78.10645;95070;;;;
2021/03/05 02:27:53;;;;;;;7.25;4.95;;;;;;;5.79;78.10645;95070;;;;
2021/03/05 02:29:57;;;;;;;7.25;4.95;;;;;;;5.79;78.10645;95070;;;;
2021/03/05 02:31:31;;;;;;;7.25;4.95;;;;;;;5.79;78.10645;95070;;;;
2021/03/05 02:32:39;;;;;;;7.25;4.95;;;;;;;5.79;78.10645;95070;;;;
2021/03/05 02:33:45;;;;;;;9.599999;6.4;;;;;;;5.77;79.14941;95071.53;;;;
2021/03/05 02:34:52;;;;;;;9.599999;6.4;;;;;;;5.77;79.14941;95071.53;;;;
2021/03/05 02:35:52;;;;;;;9.599999;6.4;;;;;;;5.77;79.14941;95071.53;;;;
2021/03/05 02:36:56;;;;;;;9.599999;6.4;;;;;;;5.77;79.14941;95071.53;;;;
2021/03/05 02:38:00;;;;;;;9.599999;6.4;;;;;;;5.77;79.14941;95071.53;;;;
2021/03/05 02:39:03;;;;;;;9.599999;6.4;;;;;;;5.77;79.14941;95071.53;;;;
2021/03/05 02:40:11;;;;;;;9.599999;6.4;;;;;;;5.77;79.14941;95071.53;;;;
2021/03/05 02:41:18;;;;;;;9.599999;6.4;;;;;;;5.77;79.14941;95071.53;;;;
2021/03/05 02:42:20;;;;;;;9.599999;6.4;;;;;;;5.77;79.14941;95071.53;;;;
2021/03/05 02:43:26;;;;;;;9.599999;6.4;;;;;;;5.77;79.14941;95071.53;;;;
2021/03/05 02:44:27;;;;;;;6.9;5.55;;;;;;;5.75;81.60645;95075.05;;;;
2021/03/05 02:45:32;;;;;;;6.9;5.55;;;;;;;5.75;81.60645;95075.05;;;;
2021/03/05 02:46:35;;;;;;;6.9;5.55;;;;;;;5.75;81.60645;95075.05;;;;
2021/03/05 02:47:39;;;;;;;6.9;5.55;;;;;;;5.75;81.60645;95075.05;;;;
2021/03/05 02:48:44;;;;;;;6.9;5.55;;;;;;;5.75;81.60645;95075.05;;;;
2021/03/05 02:49:46;;;;;;;6.9;5.55;;;;;;;5.75;81.60645;95075.05;;;;
2021/03/05 02:50:51;;;;;;;6.9;5.55;;;;;;;5.75;81.60645;95075.05;;;;
2021/03/05 02:51:55;;;;;;;6.9;5.55;;;;;;;5.75;81.60645;95075.05;;;;
2021/03/05 02:52:58;;;;;;;6.9;5.55;;;;;;;5.75;81.60645;95075.05;;;;
2021/03/05 02:54:02;;;;;;;6.9;5.55;;;;;;;5.75;81.60645;95075.05;;;;
2021/03/05 02:55:06;;;;;;;8.45;6.4;;;;;;;5.66;83.49902;95074.47;;;;
2021/03/05 02:56:09;;;;;;;8.45;6.4;;;;;;;5.66;83.49902;95074.47;;;;
2021/03/05 02:57:14;;;;;;;8.45;6.4;;;;;;;5.66;83.49902;95074.47;;;;
2021/03/05 02:58:18;;;;;;;8.45;6.4;;;;;;;5.66;83.49902;95074.47;;;;
2021/03/05 02:59:22;;;;;;;8.45;6.4;;;;;;;5.66;83.49902;95074.47;;;;
2021/03/05 03:00:23;;;;;;;8.45;6.4;;;;;;;5.66;83.49902;95074.47;;;;
2021/03/05 03:01:24;;;;;;;8.45;6.4;;;;;;;5.66;83.49902;95074.47;;;;
2021/03/05 03:02:26;;;;;;;8.45;6.4;;;;;;;5.66;83.49902;95074.47;;;;
2021/03/05 03:03:28;;;;;;;8.45;6.4;;;;;;;5.66;83.49902;95074.47;;;;
2021/03/05 03:04:30;;;;;;;8.45;6.4;;;;;;;5.66;83.49902;95074.47;;;;
2021/03/05 03:05:31;;;;;;;11.1;7.150001;;;;;;;5.61;84.33301;95077.89;;;;
2021/03/05 03:06:31;;;;;;;11.1;7.150001;;;;;;;5.61;84.33301;95077.89;;;;
2021/03/05 03:07:33;;;;;;;11.1;7.150001;;;;;;;5.61;84.33301;95077.89;;;;
2021/03/05 03:08:34;;;;;;;11.1;7.150001;;;;;;;5.61;84.33301;95077.89;;;;
2021/03/05 03:09:36;;;;;;;11.1;7.150001;;;;;;;5.61;84.33301;95077.89;;;;
2021/03/05 03:10:38;;;;;;;11.1;7.150001;;;;;;;5.61;84.33301;95077.89;;;;
2021/03/05 03:11:40;;;;;;;11.1;7.150001;;;;;;;5.61;84.33301;95077.89;;;;
2021/03/05 03:12:43;;;;;;;11.1;7.150001;;;;;;;5.61;84.33301;95077.89;;;;
2021/03/05 03:13:46;;;;;;;11.1;7.150001;;;;;;;5.61;84.33301;95077.89;;;;
2021/03/05 03:14:47;;;;;;;11.1;7.150001;;;;;;;5.61;84.33301;95077.89;;;;
2021/03/05 03:15:49;;;;;;;11.55;7.45;;;;;;;5.55;85.46973;95083.15;;;;
2021/03/05 03:16:50;;;;;;;11.55;7.45;;;;;;;5.55;85.46973;95083.15;;;;
2021/03/05 03:17:52;;;;;;;11.55;7.45;;;;;;;5.55;85.46973;95083.15;;;;
2021/03/05 03:18:53;;;;;;;11.55;7.45;;;;;;;5.55;85.46973;95083.15;;;;
2021/03/05 03:19:54;;;;;;;11.55;7.45;;;;;;;5.55;85.46973;95083.15;;;;
2021/03/05 03:20:55;;;;;;;11.55;7.45;;;;;;;5.55;85.46973;95083.15;;;;
2021/03/05 03:21:58;;;;;;;11.55;7.45;;;;;;;5.55;85.46973;95083.15;;;;
2021/03/05 03:22:59;;;;;;;11.55;7.45;;;;;;;5.55;85.46973;95083.15;;;;
2021/03/05 03:24:00;;;;;;;11.55;7.45;;;;;;;5.55;85.46973;95083.15;;;;
2021/03/05 03:25:01;;;;;;;11.55;7.45;;;;;;;5.55;85.46973;95083.15;;;;
2021/03/05 03:26:02;;;;;;;11.55;7.45;;;;;;;5.55;85.46973;95083.15;;;;
2021/03/05 03:27:02;;;;;;;11.25;8.1;;;;;;;5.53;86.34277;95088.31;;;;
2021/03/05 03:28:03;;;;;;;11.25;8.1;;;;;;;5.53;86.34277;95088.31;;;;
2021/03/05 03:29:04;;;;;;;11.25;8.1;;;;;;;5.53;86.34277;95088.31;;;;
2021/03/05 03:30:05;;;;;;;11.25;8.1;;;;;;;5.53;86.34277;95088.31;;;;
2021/03/05 03:31:08;;;;;;;11.25;8.1;;;;;;;5.53;86.34277;95088.31;;;;
2021/03/05 03:32:09;;;;;;;11.25;8.1;;;;;;;5.53;86.34277;95088.31;;;;
2021/03/05 03:33:11;;;;;;;11.25;8.1;;;;;;;5.53;86.34277;95088.31;;;;
2021/03/05 03:34:12;;;;;;;11.25;8.1;;;;;;;5.53;86.34277;95088.31;;;;
2021/03/05 03:35:13;;;;;;;11.25;8.1;;;;;;;5.53;86.34277;95088.31;;;;
2021/03/05 03:36:15;;;;;;;11.25;8.1;;;;;;;5.53;86.34277;95088.31;;;;
2021/03/05 03:37:17;;;;;;;11.9;7.95;;;;;;;5.52;86.89746;95100.16;;;;
2021/03/05 03:38:18;;;;;;;11.9;7.95;;;;;;;5.52;86.89746;95100.16;;;;
2021/03/05 03:39:20;;;;;;;11.9;7.95;;;;;;;5.52;86.89746;95100.16;;;;
2021/03/05 03:40:23;;;;;;;11.9;7.95;;;;;;;5.52;86.89746;95100.16;;;;
2021/03/05 03:41:24;;;;;;;11.9;7.95;;;;;;;5.52;86.89746;95100.16;;;;
2021/03/05 03:42:24;;;;;;;11.9;7.95;;;;;;;5.52;86.89746;95100.16;;;;
2021/03/05 03:43:25;;;;;;;11.9;7.95;;;;;;;5.52;86.89746;95100.16;;;;
2021/03/05 03:44:26;;;;;;;11.9;7.95;;;;;;;5.52;86.89746;95100.16;;;;
2021/03/05 03:45:26;;;;;;;11.9;7.95;;;;;;;5.52;86.89746;95100.16;;;;
2021/03/05 03:46:31;;;;;;;11.9;7.95;;;;;;;5.52;86.89746;95100.16;;;;
2021/03/05 03:47:33;;;;;;;11.9;7.95;;;;;;;5.52;86.89746;95100.16;;;;
2021/03/05 03:48:35;;;;;;;11.25;7.8;;;;;;;5.57;87.6123;95100.34;;;;
2021/03/05 03:49:42;;;;;;;11.25;7.8;;;;;;;5.57;87.6123;95100.34;;;;
2021/03/05 03:50:45;;;;;;;11.25;7.8;;;;;;;5.57;87.6123;95100.34;;;;
2021/03/05 03:51:51;;;;;;;11.25;7.8;;;;;;;5.57;87.6123;95100.34;;;;
2021/03/05 03:52:56;;;;;;;11.25;7.8;;;;;;;5.57;87.6123;95100.34;;;;
2021/03/05 03:54:00;;;;;;;11.25;7.8;;;;;;;5.57;87.6123;95100.34;;;;
2021/03/05 03:55:01;;;;;;;11.25;7.8;;;;;;;5.57;87.6123;95100.34;;;;
2021/03/05 03:56:06;;;;;;;11.25;7.8;;;;;;;5.57;87.6123;95100.34;;;;
2021/03/05 03:57:09;;;;;;;11.25;7.8;;;;;;;5.57;87.6123;95100.34;;;;
2021/03/05 03:58:13;;;;;;;11.25;7.8;;;;;;;5.57;87.6123;95100.34;;;;
2021/03/05 03:59:15;;;;;;;9.899999;7.449999;;;;;;;5.55;87.65137;95103.74;;;;
2021/03/05 04:00:17;;;;;;;9.899999;7.449999;;;;;;;5.55;87.65137;95103.74;;;;
2021/03/05 04:01:19;;;;;;;9.899999;7.449999;;;;;;;5.55;87.65137;95103.74;;;;
2021/03/05 04:02:21;;;;;;;9.899999;7.449999;;;;;;;5.55;87.65137;95103.74;;;;
2021/03/05 04:03:28;;;;;;;9.899999;7.449999;;;;;;;5.55;87.65137;95103.74;;;;
2021/03/05 04:04:32;;;;;;;9.899999;7.449999;;;;;;;5.55;87.65137;95103.74;;;;
2021/03/05 04:05:34;;;;;;;9.899999;7.449999;;;;;;;5.55;87.65137;95103.74;;;;
2021/03/05 04:06:42;;;;;;;9.899999;7.449999;;;;;;;5.55;87.65137;95103.74;;;;
2021/03/05 04:07:45;;;;;;;9.899999;7.449999;;;;;;;5.55;87.65137;95103.74;;;;
2021/03/05 04:08:46;;;;;;;9.899999;7.449999;;;;;;;5.55;87.65137;95103.74;;;;
2021/03/05 04:09:49;;;;;;;12.4;7.15;;;;;;;5.53;88.0791;95107.97;;;;
2021/03/05 04:10:50;;;;;;;12.4;7.15;;;;;;;5.53;88.0791;95107.97;;;;
2021/03/05 04:11:52;;;;;;;12.4;7.15;;;;;;;5.53;88.0791;95107.97;;;;
2021/03/05 04:12:54;;;;;;;12.4;7.15;;;;;;;5.53;88.0791;95107.97;;;;
2021/03/05 04:13:56;;;;;;;12.4;7.15;;;;;;;5.53;88.0791;95107.97;;;;
2021/03/05 04:14:56;;;;;;;12.4;7.15;;;;;;;5.53;88.0791;95107.97;;;;
2021/03/05 04:15:57;;;;;;;12.4;7.15;;;;;;;5.53;88.0791;95107.97;;;;
2021/03/05 04:16:58;;;;;;;12.4;7.15;;;;;;;5.53;88.0791;95107.97;;;;
2021/03/05 04:17:59;;;;;;;12.4;7.15;;;;;;;5.53;88.0791;95107.97;;;;
2021/03/05 04:19:00;;;;;;;12.4;7.15;;;;;;;5.53;88.0791;95107.97;;;;
2021/03/05 04:20:01;;;;;;;8.950001;6.799999;;;;;;;5.52;88.36328;95113.42;;;;
2021/03/05 04:21:03;;;;;;;8.950001;6.799999;;;;;;;5.52;88.36328;95113.42;;;;
2021/03/05 04:22:07;;;;;;;8.950001;6.799999;;;;;;;5.52;88.36328;95113.42;;;;
2021/03/05 04:23:07;;;;;;;8.950001;6.799999;;;;;;;5.52;88.36328;95113.42;;;;
2021/03/05 04:24:09;;;;;;;8.950001;6.799999;;;;;;;5.52;88.36328;95113.42;;;;
2021/03/05 04:25:11;;;;;;;8.950001;6.799999;;;;;;;5.52;88.36328;95113.42;;;;
2021/03/05 04:26:13;;;;;;;8.950001;6.799999;;;;;;;5.52;88.36328;95113.42;;;;
2021/03/05 04:27:13;;;;;;;8.950001;6.799999;;;;;;;5.52;88.36328;95113.42;;;;
2021/03/05 04:28:14;;;;;;;8.950001;6.799999;;;;;;;5.52;88.36328;95113.42;;;;
2021/03/05 04:29:14;;;;;;;8.950001;6.799999;;;;;;;5.52;88.36328;95113.42;;;;
2021/03/05 04:30:15;;;;;;;8.950001;6.799999;;;;;;;5.52;88.36328;95113.42;;;;
2021/03/05 04:31:16;;;;;;;8;6.1;;;;;;;5.51;88.69629;95115.39;;;;
2021/03/05 04:32:17;;;;;;;8;6.1;;;;;;;5.51;88.69629;95115.39;;;;
2021/03/05 04:33:17;;;;;;;8;6.1;;;;;;;5.51;88.69629;95115.39;;;;
2021/03/05 04:34:18;;;;;;;8;6.1;;;;;;;5.51;88.69629;95115.39;;;;
2021/03/05 04:35:19;;;;;;;8;6.1;;;;;;;5.51;88.69629;95115.39;;;;
2021/03/05 04:36:19;;;;;;;8;6.1;;;;;;;5.51;88.69629;95115.39;;;;
2021/03/05 04:37:20;;;;;;;8;6.1;;;;;;;5.51;88.69629;95115.39;;;;
2021/03/05 04:38:21;;;;;;;8;6.1;;;;;;;5.51;88.69629;95115.39;;;;
2021/03/05 04:39:21;;;;;;;8;6.1;;;;;;;5.51;88.69629;95115.39;;;;
2021/03/05 04:40:22;;;;;;;8;6.1;;;;;;;5.51;88.69629;95115.39;;;;
2021/03/05 04:41:22;;;;;;;9.299998;6.55;;;;;;;5.57;88.99414;95128.38;;;;
2021/03/05 04:42:23;;;;;;;9.299998;6.55;;;;;;;5.57;88.99414;95128.38;;;;
2021/03/05 04:43:24;;;;;;;9.299998;6.55;;;;;;;5.57;88.99414;95128.38;;;;
2021/03/05 04:44:24;;;;;;;9.299998;6.55;;;;;;;5.57;88.99414;95128.38;;;;
2021/03/05 04:45:25;;;;;;;9.299998;6.55;;;;;;;5.57;88.99414;95128.38;;;;
2021/03/05 04:46:26;;;;;;;9.299998;6.55;;;;;;;5.57;88.99414;95128.38;;;;
2021/03/05 04:47:26;;;;;;;9.299998;6.55;;;;;;;5.57;88.99414;95128.38;;;;
2021/03/05 04:48:27;;;;;;;9.299998;6.55;;;;;;;5.57;88.99414;95128.38;;;;
2021/03/05 04:49:28;;;;;;;9.299998;6.55;;;;;;;5.57;88.99414;95128.38;;;;
2021/03/05 04:50:28;;;;;;;9.299998;6.55;;;;;;;5.57;88.99414;95128.38;;;;
2021/03/05 04:51:29;;;;;;;9.299998;6.55;;;;;;;5.57;88.99414;95128.38;;;;
2021/03/05 04:52:29;;;;;;;8.049999;6.000001;;;;;;;5.59;89.35645;95115.59;;;;
2021/03/05 04:53:30;;;;;;;8.049999;6.000001;;;;;;;5.59;89.35645;95115.59;;;;
2021/03/05 04:54:30;;;;;;;8.049999;6.000001;;;;;;;5.59;89.35645;95115.59;;;;
2021/03/05 04:55:31;;;;;;;8.049999;6.000001;;;;;;;5.59;89.35645;95115.59;;;;
2021/03/05 04:56:32;;;;;;;8.049999;6.000001;;;;;;;5.59;89.35645;95115.59;;;;
2021/03/05 04:57:34;;;;;;;8.049999;6.000001;;;;;;;5.59;89.35645;95115.59;;;;
2021/03/05 04:58:35;;;;;;;8.049999;6.000001;;;;;;;5.59;89.35645;95115.59;;;;
2021/03/05 04:59:35;;;;;;;8.049999;6.000001;;;;;;;5.59;89.35645;95115.59;;;;
2021/03/05 05:00:36;;;;;;;8.049999;6.000001;;;;;;;5.59;89.35645;95115.59;;;;
2021/03/05 05:01:36;;;;;;;8.049999;6.000001;;;;;;;5.59;89.35645;95115.59;;;;
2021/03/05 05:02:37;;;;;;;8.550001;6.45;;;;;;;5.55;89.60938;95113.11;;;;
2021/03/05 05:03:37;;;;;;;8.550001;6.45;;;;;;;5.55;89.60938;95113.11;;;;
2021/03/05 05:04:38;;;;;;;8.550001;6.45;;;;;;;5.55;89.60938;95113.11;;;;
2021/03/05 05:05:39;;;;;;;8.550001;6.45;;;;;;;5.55;89.60938;95113.11;;;;
2021/03/05 05:06:40;;;;;;;8.550001;6.45;;;;;;;5.55;89.60938;95113.11;;;;
2021/03/05 05:07:41;;;;;;;8.550001;6.45;;;;;;;5.55;89.60938;95113.11;;;;
2021/03/05 05:08:41;;;;;;;8.550001;6.45;;;;;;;5.55;89.60938;95113.11;;;;
2021/03/05 05:09:42;;;;;;;8.550001;6.45;;;;;;;5.55;89.60938;95113.11;;;;
2021/03/05 05:10:42;;;;;;;8.550001;6.45;;;;;;;5.55;89.60938;95113.11;;;;
2021/03/05 05:11:43;;;;;;;8.550001;6.45;;;;;;;5.55;89.60938;95113.11;;;;
2021/03/05 05:12:43;;;;;;;8.550001;6.45;;;;;;;5.55;89.60938;95113.11;;;;
2021/03/05 05:13:44;;;;;;;10.1;7.200001;;;;;;;5.53;89.72363;95125.8;;;;
2021/03/05 05:14:44;;;;;;;10.1;7.200001;;;;;;;5.53;89.72363;95125.8;;;;
2021/03/05 05:15:45;;;;;;;10.1;7.200001;;;;;;;5.53;89.72363;95125.8;;;;
2021/03/05 05:16:46;;;;;;;10.1;7.200001;;;;;;;5.53;89.72363;95125.8;;;;
2021/03/05 05:17:46;;;;;;;10.1;7.200001;;;;;;;5.53;89.72363;95125.8;;;;
2021/03/05 05:18:46;;;;;;;10.1;7.200001;;;;;;;5.53;89.72363;95125.8;;;;
2021/03/05 05:19:47;;;;;;;10.1;7.200001;;;;;;;5.53;89.72363;95125.8;;;;
2021/03/05 05:20:47;;;;;;;10.1;7.200001;;;;;;;5.53;89.72363;95125.8;;;;
2021/03/05 05:21:48;;;;;;;10.1;7.200001;;;;;;;5.53;89.72363;95125.8;;;;
2021/03/05 05:22:49;;;;;;;10.1;7.200001;;;;;;;5.53;89.72363;95125.8;;;;
2021/03/05 05:23:49;;;;;;;10.05;7.349999;;;;;;;5.52;89.77246;95134.96;;;;
2021/03/05 05:24:50;;;;;;;10.05;7.349999;;;;;;;5.52;89.77246;95134.96;;;;
2021/03/05 05:25:50;;;;;;;10.05;7.349999;;;;;;;5.52;89.77246;95134.96;;;;
2021/03/05 05:26:51;;;;;;;10.05;7.349999;;;;;;;5.52;89.77246;95134.96;;;;
2021/03/05 05:27:51;;;;;;;10.05;7.349999;;;;;;;5.52;89.77246;95134.96;;;;
2021/03/05 05:28:52;;;;;;;10.05;7.349999;;;;;;;5.52;89.77246;95134.96;;;;
2021/03/05 05:29:52;;;;;;;10.05;7.349999;;;;;;;5.52;89.77246;95134.96;;;;
2021/03/05 05:30:53;;;;;;;10.05;7.349999;;;;;;;5.52;89.77246;95134.96;;;;
2021/03/05 05:31:53;;;;;;;10.05;7.349999;;;;;;;5.52;89.77246;95134.96;;;;
2021/03/05 05:32:54;;;;;;;10.05;7.349999;;;;;;;5.52;89.77246;95134.96;;;;
2021/03/05 05:33:54;;;;;;;10.05;7.349999;;;;;;;5.52;89.77246;95134.96;;;;
2021/03/05 05:34:55;;;;;;;10.3;8.449999;;;;;;;5.48;89.98535;95144.44;;;;
2021/03/05 05:35:55;;;;;;;10.3;8.449999;;;;;;;5.48;89.98535;95144.44;;;;
2021/03/05 05:36:56;;;;;;;10.3;8.449999;;;;;;;5.48;89.98535;95144.44;;;;
2021/03/05 05:37:57;;;;;;;10.3;8.449999;;;;;;;5.48;89.98535;95144.44;;;;
2021/03/05 05:38:57;;;;;;;10.3;8.449999;;;;;;;5.48;89.98535;95144.44;;;;
2021/03/05 05:39:58;;;;;;;10.3;8.449999;;;;;;;5.48;89.98535;95144.44;;;;
2021/03/05 05:40:58;;;;;;;10.3;8.449999;;;;;;;5.48;89.98535;95144.44;;;;
2021/03/05 05:42:00;;;;;;;10.3;8.449999;;;;;;;5.48;89.98535;95144.44;;;;
2021/03/05 05:43:01;;;;;;;10.3;8.449999;;;;;;;5.48;89.98535;95144.44;;;;
2021/03/05 05:44:02;;;;;;;10.3;8.449999;;;;;;;5.48;89.98535;95144.44;;;;
2021/03/05 05:45:02;;;;;;;10.3;8.449999;;;;;;;5.48;89.98535;95144.44;;;;
2021/03/05 05:46:04;;;;;;;11.95;8.4;;;;;;;5.38;90.62891;95147.94;;;;